R E S U L T A T S
23. Weinstraßenlauf über 10.3 km - Wissembourg->Bad Bergzabern - 31. August 2014
Cls. Nom Prenom Club Temps Cat. An. Dos.
1 Zschaubitz Andre LG Rülzheim 00:34:49 MHK 1985 313
2 Deck Joel ANA RAC Wissembourg 00:35:10 M30 1984 423
3 Boyer Arnaud Jog'R le Team 00:36:29 M30 1981 430
4 Lapp Freddy Running Team Schweighouse 00:36:51 M45 1966 363
5 Stephan Fabrice ANA RAC Wissembourg 00:36:55 M35 1979 441
6 Giuttet Denis Run and Trail Wissembourg 00:37:17 M45 1969 440
7 Meyer Pascal Run and Trail Wissembourg 00:37:28 M45 1968 424
8 Weber Tim Straubenhardt 00:38:25 MHK 1985 455
9 Linck Franck Team Raidlight / Schroff 00:38:54 M30 1980 760
10 Bentz Volker TV Herxheim/Team ASEA 00:39:10 M40 1971 710
11 Ullrich Johannes TV Bad Bergzabern 00:39:11 MJA 1998 276
12 Haria Simon ANA RAC Wissembourg 00:39:31 MJA 1996 622
13 Ullrich Philipp TV Bad Bergzabern 00:39:37 MHK 1992 277
14 Sicot Patrick Reichshoffen 00:39:40 M45 1969 422
15 Suss Vincent OH Morsbronn 00:39:46 M30 1982 433
16 Schwartz Jean-Marie ANA RAC Wissembourg 00:39:53 M55 1958 446
17 Richert Amaury FC Haguenau 00:40:01 MJA 1995 427
18 Hollstein Jochen TS Germersheim 00:40:10 M40 1973 318
19 Roos Walter TV Bad Bergzabern 00:40:13 M40 1971 829
20 Kennel Alain RT Schweighouse 00:40:16 M30 1980 383
21 Zerr Laurent OH Morsbronn 00:40:25 M40 1970 373
22 Morgenstern Kai TSV Kandel 00:40:35 M40 1973 857
23 Meyer Max Landau 00:40:39 MHK 1986 359
24 Hauss Christophe La Saline Soultz 00:41:14 M50 1963 770
25 Degen Jürgen LC Haßloch 00:41:20 M50 1960 396
26 Brug Thierry ANA RAC Wissembourg 00:41:28 M45 1967 536
27 Knaub Roland ANA Lauterbourg AC 00:41:47 M55 1958 687
28 Schuler Eric Ingolsheim 00:41:50 M40 1974 317
29 Renner Frank LC Haßloch 00:41:53 M40 1974 882
30 Zänker Hans-Gerd TV Bad Bergzabern 00:41:59 M50 1960 360
31 Wendling Lukas LT Ettlingen 00:42:07 MHK 1994 451
32 Ring Christian Truck Speed 00:42:08 M35 1976 369
33 Braun Jean-Marc ASL La Robertsau 00:42:12 M45 1966 392
34 Stephan Jean Michel La Saline/Soultz sous Forets 00:42:17 M35 1979 657
35 Moerckel Fabrice Kutzenhausen 00:42:18 M35 1976 412
36 Tachtler Robert TSG Bruchsal 00:42:30 M40 1973 308
37 Jäger Johannes TV Bad Bergzabern 00:42:46 MJA 1998 546
38 Latz Thomas TV Rheinzabern 00:42:50 M35 1976 726
39 Schweitzer Jean-Luc OH Morsbronn 00:42:54 M50 1960 393
40 Becker Alexander Bad Bergzabern 00:42:56 MJA 1996 356
41 Martinez Miguel Fitness+Sport RehaCenter BZA 00:42:59 MHK 1993 732
42 Benz Andreas Ettlingen 00:43:03 MHK 1987 818
43 Sarter Jonathan Bad Bergzabern 00:43:26 MJA 1997 492
44 Maier Andreas Karlsruher Lemminge 00:43:34 M40 1973 871
45 Stopa-Capelle Valerie ASL La Robertsau 00:43:38 W35 1978 310
46 Knaebel Sebastien La Saline/Soultz sous Forets 00:43:40 M35 1975 497
47 Heid Markus TV Bad Bergzabern 00:43:51 M35 1978 727
48 Friedel Janine TV Herxheim 00:43:55 W30 1980 380
49 Bentz Stephan Schweigen-Rechtenbach 00:43:56 MHK 1993 709
50 Roehrig Nicolas Riedseltz 00:43:58 M30 1981 619
51 Wieg Frank Dörrenbach 00:44:05 M40 1974 466
52 Dietrich Jens Heidelberg 00:44:11 M35 1978 339
53 Luz Christian Schiltigheim 00:44:12 MHK 1985 662
54 Knittel Daniel Altenstadt 00:44:19 M45 1966 764
55 Weiser Stephan Truck Speed 00:44:23 MHK 1986 811
56 Kratzeisen Steve . 00:44:30 M30 1983 279
57 Deiller Laurent Bar le duc 00:44:33 M30 1981 305
58 Schopp Bernard ANA RAC Wissembourg 00:44:37 M60 1953 641
59 Klieber Serge Oxygene 68 00:44:43 M60 1953 432
60 Fuchs Mathieu Sew trail 00:44:45 M45 1966 772
61 Marzluf Birgit TV Haueneberstein 00:44:46 W45 1966 345
62 Deiller Vincent La Saline 00:44:51 M35 1977 306
63 Martin Michel SEW Usocome Trail 00:45:00 M40 1971 671
64 Fehninger Harald TG Ötigheim 00:45:02 M45 1968 461
65 Hauptmann Ralf Karlsruhe 00:45:03 M35 1979 573
66 Braun Matthias TV Maikammer 00:45:11 M40 1973 347
67 Hoffmann Erwin TV Bad Bergzabern 00:45:12 M55 1958 740
68 Maire Guillaume . 00:45:13 M30 1984 336
69 Theobald Ralf Lauf-Team Felsenland 00:45:14 M45 1967 706
70 Aron Martial TMG 00:45:22 M40 1970 438
71 Rohmkopf Patrizia Parkklinik 00:45:24 W40 1970 387
72 Hetzler Florian TV Bad Bergzabern 00:45:25 MHK 1993 885
73 Müller Udo LG Klingenmünster 00:45:30 M45 1965 385
74 Zepp Christoph TV Bad Bergzabern 00:45:36 M35 1979 729
75 Schweitzer Yann Schleithal 00:45:45 MJA 1998 416
76 Scheyd Janik Schweigen 00:45:48 MJA 1996 355
77 Fätsch Sandra LSG Zeiskam/ Team Erdinger 00:45:51 W40 1973 691
78 Ducert Bertrand Wissembourg 00:45:54 M45 1967 675
79 Hess Achim Direkt ins Blut 00:45:56 M40 1970 338
80 Buchi Bernard ZORN Running du Pays de DABO 00:46:04 M45 1966 428
81 Kaiser Pascal Schaeffler France 00:46:07 M35 1975 680
82 Beill Cedric Ligne de Vie 00:46:19 M30 1983 630
83 Lauth Cathy Ligne De Vie 00:46:20 WHK 1985 311
84 Marelille Alexandre Ligne de Vie 00:46:20 M40 1971 626
85 Statt Alexis Ligne de Vie 00:46:21 MJA 2000 629
86 Mosser Fabien Ligne de Vie 00:46:21 M35 1979 627
87 Moschenros Pascal Ligne de Vie 00:46:22 M40 1971 625
88 Koehl Daniel Ligne de Vie 00:46:22 M55 1955 442
89 Barthel Stephane Naveco Betschdorf 00:46:23 M30 1981 623
90 Knittel Jeremy Ligne de Vie 00:46:23 M30 1981 628
91 Zschaubitz Gerhard TV Bad Bergzabern 00:46:24 M50 1961 812
92 Seith Stephan Heltersberg 00:46:24 M30 1984 733
93 Bogner Stephane Riedseltz 00:46:26 M35 1977 618
94 Rouviere Nathalie Oberhoffen les Wissembourg 00:46:28 WJA 1995 685
95 Getto Albert Bergmarathon Zermatt 00:46:30 M55 1956 633
96 Theraud Yves Drachenbronn 00:46:32 M45 1965 636
97 Baessler Alexandre ANA RAC Wissembourg 00:46:37 MHK 1987 778
98 Kuszyk Paul Team Erdinger alkoholfrei 00:46:43 M50 1961 643
99 Bursch Werner Wathlingen 00:46:47 M70 1943 860
100 Lambert Sebastien Bischheim 00:46:52 M35 1979 667
101 Becht Andreas LF Laufen für Weizen 00:46:55 M30 1981 547
102 Herrel Jürgen Kehl-Odelshofen 00:46:58 M50 1960 459
103 Boulou Jean-Claude FC Altenstadt 00:47:03 M55 1959 447
104 Mayer Dieter Dahn 00:47:06 M45 1965 322
105 Knöller Gerhard Laufteam RS 800 00:47:09 M60 1952 884
106 Schimpf Werner TV Bad Bergzabern 00:47:11 M65 1946 794
107 Cuntz Karlheinz LG Kapellen-Drusweiler 00:47:18 M55 1955 572
108 Osswald Vivien Memmelshoffen 00:47:25 MHK 1987 655
109 Wüst Harriet TV Bad Bergzabern 00:47:39 W40 1974 348
110 Imhoff Andreas TV Bad Bergzabern 00:47:42 M55 1959 828
111 Bischoff Dirk LSG Karlsruhe 00:47:45 M45 1968 411
112 Siffert JP The beautiful walk 00:47:46 M35 1979 335
113 Sandor Gyula TV Bad Bergzabern 00:47:49 M40 1970 304
114 Knittel Francky Niederroedern 00:47:59 MHK 1989 682
115 Usselmann Richard Bischwiller 00:48:02 M55 1957 379
116 Neichel Marcel ACP Mothern 00:48:04 M50 1962 439
117 Capelle Pierre-Yves ASL La Robertson 00:48:05 M50 1961 312
118 Bendel Jutta SV Klingenmünster 00:48:13 W50 1960 368
119 Kotschenreuther Stefan Judo Claub Viehstrich 00:48:16 M35 1977 480
120 Hoffmeyer Yves Tranports Woehl 00:48:17 M45 1967 403
121 Oster Werner Sandhasen Schweighofen 00:48:23 M45 1966 825
122 Steiger Christoph SV Oberotterbach 00:48:28 MHK 1989 275
123 Mielle Alain Strasbourg 00:48:29 M45 1969 758
124 Wendling Bernd LT Ettlingen 00:48:32 M55 1958 452
125 Schuba Johann Klingbachrunners 00:48:33 M55 1955 813
126 Bischoff Natascha LSG Karlsruhe 00:48:43 W40 1971 419
127 Schweitzer Clement Schleithal 00:48:48 M45 1968 417
128 Zepp Stephan TV Bad Bergzabern 00:48:49 M35 1978 728
129 Vuillemin Bruno La Wantzenau 00:48:50 M55 1956 638
130 Bentz Janina TV Rheinzabern 00:48:51 W30 1983 863
131 Mene Jean-Michel Haguenau 00:48:53 M55 1957 550
132 Schneiderbeck-Pamin Enrico SG Stern Ludwigsfelde 00:48:59 M35 1976 344
133 Cioffi Francesco Baden-Baden 00:48:59 M30 1980 343
134 Hoffmann Thomas TV Bad Bergzabern 00:49:00 M55 1958 743
135 Philipps Hubert Merkwiller 00:49:01 M50 1963 673
136 Senger Syvie ACP Mothern 00:49:04 W35 1976 637
137 Braun Alwin Büchelberger Bienwaldläufer 00:49:05 M50 1961 329
138 Joerger André ANA RAC Wissembourg 00:49:13 M60 1951 366
139 Gruber Markus Neupotz 00:49:16 M40 1971 481
140 Hemmerle Philippe Altenstadt 00:49:23 M35 1976 639
141 Hoch Jean-Francois La Saline/Soultz sous Forets 00:49:34 M35 1978 500
142 Schilling Denis FC Altenstadt 00:49:49 M45 1968 330
143 Taupitz Tobias Karlsruhe 00:49:50 M30 1984 463
144 Wetzel Jürgen Klingbachrunners 00:49:55 M45 1966 816
145 von Hackewitz Michael SF Dierbach 00:49:57 M45 1968 303
146 Strasser Pascal ANA Lauterbourg AC 00:50:02 M45 1967 749
147 Lettau Benjamin SV Oberotterbach 00:50:03 MHK 1988 300
148 Erhart Christian SV Oberotterbach 00:50:03 MHK 1989 302
149 Kauff Stefan Sandhasen Schweighofen 00:50:05 M50 1964 780
150 Rouviere Bernard Oberhoffen les Wissembourg 00:50:09 M50 1962 684
151 Bauerfeind Thomas SC Ebrach 00:50:11 M40 1974 839
152 Brossart Elvira TV Bad Bergzabern 00:50:15 W50 1961 742
153 Lauth Florian Schweigen 00:50:15 MHK 1987 695
154 Schultz Dirk Landau 00:50:16 MHK 1986 575
155 Hege Sylvain Wissembourg 00:50:18 M45 1966 407
156 Juner Hanno FC Münchweiler 00:50:33 M45 1965 331
157 Fätsch Hans Michael LSG Zeiskam/ Team Erdinger 00:50:35 M45 1967 692
158 Weber Laurent Drusenheim 00:50:39 M45 1969 679
159 Werlen Rene Seltz 00:50:40 M50 1962 620
160 Heimlich Remi Altenstadt 00:50:40 M50 1960 535
161 Wettstein Ramon Karlsruhe 00:50:43 M40 1974 842
162 Ferriere Arnaud Strasbourg 00:50:45 M35 1975 889
163 Marrocco Andre Strasbourg 00:50:54 M50 1963 669
164 Flörchinger Herbert TV Rheinzabern 00:50:55 M60 1951 854
165 Philipps Demise . 00:51:05 W50 1961 350
166 Albenesius Francois La Saline/Soultz sous Forets 00:51:06 M55 1955 609
167 Meyer Fabien Burstner 00:51:06 M45 1969 759
168 Kuappe Sebastian Wörth 00:51:16 M30 1980 316
169 Miranda Julio OH Morsbronn 00:51:19 M40 1974 280
170 Paetzold Stefan Niederotterbach 00:51:23 M40 1972 841
171 Hillenbrand Lucas TV Bad Bergzabern 00:51:32 MHK 1992 583
172 Anzalone Tony Altenstadt 00:51:34 M45 1967 808
173 Glauber Wilfried Leimersheim 00:51:35 M60 1953 874
174 Aron Fabienne De Dietrich Thermique 00:51:37 M40 1973 437
175 Schlutius Alexander Erlenbach 00:51:38 M35 1979 332
176 Cuipers Willy ASBL Seraing Runner 00:51:44 M65 1946 802
177 Hirsch Heiko Landau 00:51:46 M35 1978 340
178 Weber Harald Landau 00:51:49 M60 1953 877
179 Zimmermann Pierre Strasbourg 00:51:51 M40 1970 415
180 Perko Manuel Direkt ins Blut 00:51:53 M30 1984 337
181 Knittel Rene Wissembourg 00:51:55 M50 1964 402
182 Petilliot Elke TSG Wiesloch 00:51:58 W55 1958 486
183 Grzesinski Bernard ASBL Seraing Runner 00:51:59 M50 1961 797
184 Kuhn Joachim LD-Dammheim 00:52:01 M50 1961 642
185 Piro Carlo ASBL Seraing Runner 00:52:08 M60 1950 787
186 Poitevin Fabian Haguenau 00:52:10 MHK 1986 426
187 Jourdan Achim TV Kieselbronn 00:52:11 M50 1960 846
188 Scheib Jürgen LF Laufen für Weizen 00:52:13 M35 1977 574
189 Geideck Hans Judo Club Lauterbourg 00:52:14 M45 1968 771
190 Vogel Rudi SV Werschweiler 00:52:17 M65 1945 326
191 Feldmann Stefan TV Rheinzabern 00:52:20 MHK 1986 367
192 Hitschler Sebastien Burstner 00:52:25 M30 1981 768
193 Bitter Stefan LG Wittgenstein 00:52:25 M50 1963 898
194 Kleinert David Sexy Plaisir 00:52:26 MHK 1987 421
195 Helbig Volker TV Bad Bergzabern 00:52:30 M60 1952 458
196 Pincic Marko ASBL Seraing Runner 00:52:34 M70 1943 788
197 Luces Andrea Strasbourg 00:52:35 W45 1967 892
198 Willerval Yannick Schiltigheim 00:52:36 M30 1984 425
199 Thiel Henning Köln 00:52:38 M45 1965 539
200 Bantz Hans TuS Schaidt 00:52:42 M55 1956 823
201 Gaukel Florian TuS Schaidt 00:52:43 MHK 1990 824
202 Kuntz Matthias TV Bad Bergzabern 00:52:44 M45 1966 400
203 Brödel Joachim TV Bad Bergzabern 00:52:47 M50 1960 827
204 Seibel Christoph TV Maikammer 00:52:50 M40 1972 378
205 Schimpf Reinhold Schweighofen 00:52:55 M50 1964 847
206 Metz Bernhard TV Bad Bergzabern 00:52:57 M50 1961 826
207 Hoffmann Birgit TV Bad Bergzabern 00:52:58 W50 1961 741
208 Wegmann David Vigne et Houblon 00:52:59 M30 1980 745
209 Heinz Sebastian LF Laufen für Weizen 00:52:59 MHK 1985 456
210 Busch Bertrand Leutenheim 00:53:03 M50 1964 674
211 Klein Sarah TV Bad Bergzabern 00:53:05 WHK 1992 701
212 Donnate Philippe ACP Mothern 00:53:05 M50 1964 672
213 Eben Guy ASBL Seraing Runner 00:53:06 M70 1941 806
214 Deck Damien Running Seltz 00:53:11 M50 1962 775
215 Pfaff Jens TV Bad Bergzabern 00:53:12 M35 1978 314
216 Kern Karl-Heinz LG Rülzheim 00:53:13 M75 1939 328
217 Wolff Bernhard LG Rülzheim 00:53:14 M50 1962 349
218 Holtzmann Oliver Running Seltz 00:53:14 M50 1962 766
219 Scheib Christin TV Bad Bergzabern 00:53:22 WJA 1995 702
220 Seytel Bernard Schweighouse 00:53:23 M45 1965 499
221 Donnate Marie-Claude ACP Mothern 00:53:28 W45 1966 656
222 Mattozza Marc . 00:53:29 M45 1969 278
223 Obernesser Lucas Hatten 00:53:30 MHK 1987 418
224 Walter Simon Schweigen 00:53:31 M30 1980 696
225 Kleinert Nicolas Sexy Plaisirs Wissembourg 00:53:35 MHK 1986 765
226 Jacobi Gerhard memler.de 00:53:37 M65 1949 493
227 Boudgoust Andreé Niederlauterbach 00:53:38 W55 1959 365
228 Göhring Tina TV Bad Bergzabern 00:53:41 W30 1983 361
229 Danneil Friederike Tricon Wörth 00:53:44 W30 1981 321
230 Balbach Walter TG Waldsee 00:53:46 M60 1952 371
231 Schlensog Thomas Laufgruppe Kömmerling 00:53:54 M50 1963 752
232 Eisenmann Sandra Karlsruher Lemminge 00:53:55 WHK 1986 870
233 Wetzel Thomas Klingbachrunners 00:53:56 M50 1963 815
234 Gast Gerhard Schweighofen 00:54:04 M55 1958 851
235 Braun Nicole Schleithal 00:54:11 W60 1951 443
236 Priester Anke TV Maikammer 00:54:17 W45 1969 320
237 Damm Jürgen TV Maikammer 00:54:17 M45 1968 315
238 Kulik Daniel LF Laufen für Weizen 00:54:20 M30 1982 472
239 Sünder Steffen SV Niederhorbach 00:54:21 M30 1984 837
240 Bitzer Bärbel TV Bad Bergzabern 00:54:22 W50 1964 717
241 Wander Volker TV Bad Bergzabern 00:54:23 M50 1960 704
242 Breithaupt Rolf LSG Karlsruhe 00:54:24 M65 1945 634
243 Ordelt Heiko Mannheim 00:54:50 M30 1980 875
244 Kieffer Genevieve Strasbourg 00:55:09 W35 1979 327
245 Langlotz Simon Karlsruhe 00:55:12 MJA 1996 489
246 Doll Helmut Kneipp Verein Bruchsal 00:55:14 M55 1955 879
247 Lehmann Jörg Kapsweyer 00:55:16 M55 1955 580
248 Joerger Stephane . 00:55:18 M40 1970 354
249 Ulinski Carsten Lauterbourg 00:55:25 M55 1958 390
250 Lahres Hans-Peter LT Lausitz 00:55:32 M60 1951 715
251 Giessenhoffer Eric Haguenau 00:55:32 M45 1967 654
252 Klettig Thorsten Wörth 00:55:34 M30 1984 375
253 Souplet Michel ASBL Seraing Runner 00:55:36 M50 1961 784
254 Drieß Janik TV Bad Bergzabern 00:55:36 MJA 1999 341
255 Vanderweyer Ludivine ASBL Seraing Runner 00:55:37 W35 1978 782
256 Flos Gerda TV Bad Bergzabern 00:55:39 W50 1960 587
257 Öhl Steven LF Laufen für Weizen 00:55:42 M30 1980 548
258 Ducourneau Yannick Rothbach 00:55:47 M60 1952 406
259 Bohrer Thomas LG Klingenmünster 00:55:55 M45 1969 370
260 Böttinger Sven motiviert aber talentfrei 00:56:04 M45 1969 836
261 Weimer Ruth TSG Wiesloch 00:56:05 W60 1952 485
262 Jung Dietmar Freies Tibet 00:56:07 M50 1962 394
263 Wegst Tatjana Schweigen-Rechtenbach 00:56:13 W40 1973 325
264 Jadot Marc ASBL Seraing Runner 00:56:21 M45 1967 793
265 Tete Gwenaelle Schleithal 00:56:25 WJA 1996 748
266 Lang Ylona TS Germersheim 00:56:30 W55 1958 362
267 O Connor Aodh Heidelberg 00:56:31 M30 1982 723
268 Masur Kai SV Oberotterbach 00:56:38 MHK 1992 301
269 Rehm Michael Motorradfreunde Schweigen-R 00:56:41 M45 1968 319
270 Schultz Christian Steinfeld 00:56:52 M50 1963 353
271 Sorroche Juan Vigne et Houblon 00:56:56 M30 1983 751
272 Ehrmann Carole TACC 00:56:57 W40 1970 364
273 Vannier Bernard . 00:57:22 M65 1947 965
274 Metz Joachim Klingbachrunners 00:57:23 M50 1961 814
275 Renard Daniel FCN / Niederroedern 00:57:32 M55 1957 413
276 Schredelseker Christel TG Winkel 00:57:42 W60 1950 886
277 Kabisch Neela Karlsruher 00:57:50 WHK 1987 843
278 Bardens Karin Kirchheim/Teck 00:58:02 WHK 1991 471
279 Paul Stefan Steinfeld 00:58:06 M35 1975 404
280 Walter Nils Bad Bergzabern 00:58:07 M30 1983 697
281 Schmitz Katia ASBL Seraing Runner 00:58:09 W35 1979 785
282 Leon Victor ASBL Seraing Runner 00:58:10 M55 1955 644
283 Frey Charles Oberhoffen Wissembourg 00:58:18 M55 1957 323
284 Kreitner-Weber Ute Maximiliansau 00:58:22 W50 1963 631
285 Skalnik Roma Ludwigshafen 00:58:23 M40 1971 395
286 Benslimene Nacera Bischheim 00:58:26 W35 1979 666
287 Schauinger Marinette ACP Mothern 00:58:29 W50 1962 420
288 Schauinger Raymond ACP Mothern 00:58:30 M50 1963 429
289 Bayer Jean-Georges ANA RAC Wissembourg 00:58:33 M50 1963 445
290 Fuchs Cyrille ANA RAC Wissembourg 00:58:34 M30 1982 431
291 Boellinger Bruno ANA RAC Wissembourg 00:58:34 M55 1959 377
292 Bayer Florian ANA RAC Wissembourg 00:58:35 MHK 1991 444
293 Ditz Ines Rechtenbach 00:58:38 WJA 2001 307
294 Wagner Brigitte TV Hinterweidenthal 00:58:40 W60 1954 700
295 Vandersmisse Patricia ASBL Seraing Runner 00:58:45 W50 1963 783
296 Brunck Arno Oberotterbach 00:58:46 M50 1962 865
297 Weilemann Anna LT Ettlingen 00:58:46 W30 1982 578
298 Halleux Philippe ASBL Seraing Runner 00:58:55 M60 1954 796
299 Kopff Michel AS UDS 00:58:59 M45 1968 763
300 Zimmermann Caroline Strasbourg 00:59:00 W35 1978 498
301 Philipps Didier ACP Mothern 00:59:02 M50 1963 664
302 Weberstoltz Sandrine Drusenheim 00:59:06 W40 1971 658
303 Mnich Daniela TG Steinseltz 00:59:10 W45 1969 465
304 Gutjahr Svetlana TV Bad Bergzabern 00:59:18 WHK 1989 490
305 Funkner Farida Steinfeld 00:59:19 W30 1983 491
306 Davidowsky Egon Murr 00:59:20 M65 1949 858
307 Kerscher Thomas Ludwigshafen Runners 00:59:29 M55 1957 712
308 Ringshauser Walter Bad Bergzabern 00:59:32 M60 1950 462
309 Schreieck Heike LCO Edenkoben 00:59:33 W50 1962 538
310 Schreieck Martin LCO Edenkoben 00:59:34 M55 1956 537
311 Robbi Rudi ASBL Seraing Runner 00:59:46 M65 1949 786
312 Beck Elisabeth Parkklinik 00:59:54 W45 1965 333
313 Butterling Bernd TV Bad Bergzabern 00:59:56 M75 1939 738
314 Westerhorstmann Kathleen Bornheim 01:00:14 W50 1964 494
315 Lüth Sabine Lienen 01:00:18 W35 1978 549
316 Gottel Werner Tennisclub Pleisweiler 01:00:32 M70 1944 309
317 Martin Caroline Seebach 01:00:33 W30 1983 678
318 Hiegle Michael SF Dierbach 01:00:43 M50 1962 464
319 Marangos Anna Gertwiller 01:00:49 W50 1962 659
320 Stengl Britta DUV 01:01:04 W45 1969 711
321 Eschermann Haike Pfälzer Flitzer 01:01:13 W45 1966 694
322 Bast Nikolaus Steinfeld 01:01:15 M50 1961 693
323 Kunzmann Hendrik Remchingen 01:01:30 M45 1965 883
324 Fourny Philippe ASBL Seraing Runner 01:01:33 M55 1955 799
325 Ries Daniel TV Bad Bergzabern 01:01:37 MHK 1989 586
326 Kehrer Andreas VLG Maximiliansau 01:01:41 M30 1983 374
327 Stahl Nora memler.de 01:01:53 W60 1954 867
328 Kurtz Gernot IGL Reutlingen 01:02:00 M65 1945 730
329 Jochim Maria TV Herxheim 01:02:13 W65 1945 389
330 Jochim Klaus TV Herxheim 01:02:14 M75 1938 388
331 Krieger Ursula DHU Karlsruhe 01:02:14 W55 1955 897
332 Mauri Annie ASBL Seraing Runner 01:02:24 W55 1956 790
333 Wagenbrenner Ole Steinfeld 01:02:38 MJA 2002 351
334 Aschbacher Bettina Bellheim 01:02:40 W45 1966 475
335 Rietsch Josiane Running Team Schweighouse 01:02:44 W60 1952 756
336 Steinmetz Marie-Paule Running Team Schweighouse 01:02:44 W55 1955 750
337 Wiedemann Albert Bischwiller 01:03:04 M55 1959 665
338 Sauer Lukas Schweigen-Rechtenbach 01:03:05 MHK 1991 495
339 Wegst Joachim Schweigen-Rechtenbach 01:03:05 M50 1960 324
340 Behret Bernd TV Bad Bergzabern 01:03:06 M70 1940 769
341 Seyfried Renate TSV Berghausen 01:03:09 W60 1950 714
342 Hoeckel Nathalie La Wantzenau 01:03:11 W45 1965 767
343 Frisch Jean Ungersheim 01:03:11 M45 1969 773
344 Warth Saskia Muggensturm 01:03:12 W30 1983 470
345 Levijion Volker FC2KW 01:03:17 M45 1966 398
346 Fahrenbach Teresa FC2KW 01:03:19 W35 1979 399
347 Otto Silvia TG Waldsee 01:03:23 W45 1965 705
348 Moser Joachim TV Bad Bergzabern 01:03:28 M40 1970 737
349 Schindewolf Cornelia Berlin 01:03:30 W50 1964 469
350 Kling Gaby TSV Kandel 01:03:55 W40 1973 460
351 Mauri Pascale ASBL Seraing Runner 01:03:56 W45 1967 791
352 Martin Alexandre Seebach 01:04:57 M35 1978 661
353 Held Ulla LLG Drei Buchen 01:05:01 W50 1962 845
354 Drieß Andreas Männerballett 01:05:05 M40 1970 342
355 Zerr Sandrine OH Morsbronn 01:05:18 W45 1969 686
356 Bisch Viola Bischweier 01:05:19 W40 1970 401
357 Schütz Stefanie TV Bad Bergzabern 01:05:33 W30 1980 376
358 Höffner Kai TV Bad Bergzabern 01:05:34 M35 1977 397
359 Walkingshaw Sharon Heidelberg 01:05:35 WHK 1985 722
360 Garry Ann Heidelberg 01:05:36 W30 1983 721
361 Braun Arthur TSG Deidesheim 01:05:41 M60 1950 382
362 Edighoffer Sarah Oberhoffen les Wissembourg 01:05:44 WJA 1995 410
363 Edighoffer Roland Steinseltz 01:05:45 M50 1960 774
364 Flörchinger Uschi TV Rheinzabern 01:05:51 W60 1951 853
365 Goettling Dieter LT Wasserturm Sindelfingen 01:05:56 M70 1943 648
366 Verlaine Catherine ASBL Seraing Runner 01:06:04 W50 1960 781
367 Hinkel Friedrich TV Lemberg 01:06:21 M70 1940 840
368 Brauer Ernst TV Bad Bergzabern 01:06:21 M60 1952 457
369 Wagenbrenner Jule Steinfeld 01:06:24 WJA 2000 352
370 Semmelsberger Annette Landau 01:06:43 W45 1969 873
371 Reinhardt Helga TV Bad Bergzabern 01:06:50 W60 1954 651
372 De Smet Jaques ASBL Seraing Runner 01:07:26 M60 1950 801
373 Steinmann Thilo Schweigen-Rechtenbach 01:07:34 M45 1965 719
374 Böhm Manfred TV Bad Bergzabern 01:07:42 M75 1938 718
375 Leuthold Rudolf Winterthur / Schweiz 01:08:19 M65 1946 817
376 Reutenauer Christine De Dietrich Thermique 01:08:36 W40 1971 668
377 Kupitz Bernd TSV Fürfeld 01:08:42 M65 1945 716
378 Heydenbluth Horst Schortens / Friesland 01:08:43 M75 1939 720
379 De Robertis Marco Klingenmünster 01:09:09 M45 1969 391
380 Dierstein Emilie Schiltigheim 01:09:10 W30 1980 653
381 Coune Patrick ASBL Seraing Runner 01:09:20 M50 1960 803
382 Kurtz Gudrun IGL Reutlingen 01:09:37 W65 1948 731
383 Nessel Hubert TV Bad Bergzabern 01:09:50 M55 1956 848
384 Smeets Jos LG De Grenslaupers 01:09:53 M60 1951 699
385 Seuferle Birgit Schweigen-Rechtenbach 01:10:05 W45 1965 496
386 Tachtler Merlita Rechtenbach 01:10:06 W40 1974 334
387 Mendicino Paola ASBL Seraing Runner 01:10:06 W45 1967 789
388 Weilemann Gerhard LT Ettlingen 01:10:32 M70 1941 577
389 Claus Anja Otterstadt 01:11:10 W45 1965 372
390 Gärtner Edith TV Bad Bergzabern 01:11:12 W55 1955 832
391 Wendelmuth Inge TV Bad Bergzabern 01:11:12 W70 1943 384
392 Biehn-Keipp Ulrike TV Bad Bergzabern 01:11:56 W50 1962 590
393 Kuntz Wolfgang TV Bad Bergzabern 01:11:56 M55 1955 736
394 Schliesche Jan Polizei SV Eutin 01:12:30 M50 1960 646
395 Wills-Wissing Denise LG Kapellen-Drusweiler 01:13:15 W60 1951 358
396 Wissing Sigrid LG Kapellen-Drusweiler 01:13:15 W60 1953 357
397 Widmann Jacques Lauterbourg 01:13:23 M50 1961 713
398 Borus Claire ASBL Seraing Runner 01:13:50 W55 1956 804
399 Held Oskar LLG Drei Buchen 01:14:11 M65 1947 484
400 Wiedemann Jürgen SSC Karlsruhe 01:15:05 M70 1944 579
401 Karasek Kurt Oberotterbach 01:15:09 M60 1953 450
402 Heußmann Ines Gotha 01:15:12 W50 1963 899
403 Jaspart Gaston ASBL Seraing Runner 01:16:00 M65 1947 792
404 Bayer Marie-Louise TV Bad Bergzabern 01:16:15 W65 1946 735
405 Potschka-Herrmann Marion TV Bad Bergzabern 01:16:16 W60 1952 689
406 Ista René ASBL Seraing Runner 01:21:48 M65 1946 795
407 Greer Peggy ASBL Seraing Runner 01:29:11 W40 1974 798
408 Fischer Bärbel TV Bad Bergzabern 01:29:13 W55 1955 831